createdAt,value
2022-10-29T00:00:56.321Z,7.37
2022-10-29T00:03:23.873Z,7.73
2022-10-29T00:06:06.086Z,10.30
2022-10-29T00:08:35.613Z,7.57
2022-10-29T00:11:20.196Z,8.40
2022-10-29T00:13:48.674Z,7.70
2022-10-29T00:16:20.222Z,7.90
2022-10-29T00:18:47.398Z,8.10
2022-10-29T00:21:16.934Z,8.90
2022-10-29T00:23:43.933Z,8.03
2022-10-29T00:26:11.498Z,8.00
2022-10-29T00:28:38.706Z,8.17
2022-10-29T00:31:24.528Z,7.87
2022-10-29T00:33:53.584Z,7.93
2022-10-29T00:36:22.948Z,8.40
2022-10-29T00:38:50.433Z,8.00
2022-10-29T00:41:22.756Z,7.43
2022-10-29T00:43:52.453Z,9.27
2022-10-29T00:46:33.819Z,7.60
2022-10-29T00:49:01.209Z,7.30
2022-10-29T00:51:30.406Z,8.00
2022-10-29T00:54:02.394Z,8.13
2022-10-29T00:56:33.322Z,8.20
2022-10-29T00:59:11.410Z,7.80
2022-10-29T01:01:39.316Z,7.90
2022-10-29T01:04:06.721Z,8.00
2022-10-29T01:06:33.822Z,8.77
2022-10-29T01:09:00.618Z,9.60
2022-10-29T01:11:36.825Z,7.47
2022-10-29T01:14:26.296Z,7.93
2022-10-29T01:17:05.993Z,7.87
2022-10-29T01:19:49.506Z,8.90
2022-10-29T01:22:24.318Z,7.30
2022-10-29T01:25:06.416Z,7.83
2022-10-29T01:27:56.949Z,8.40
2022-10-29T01:30:51.636Z,8.50
2022-10-29T01:33:25.108Z,8.23
2022-10-29T01:36:03.805Z,7.87
2022-10-29T01:38:38.600Z,7.57
2022-10-29T01:41:16.037Z,8.63
2022-10-29T01:44:01.736Z,7.97
2022-10-29T01:46:37.367Z,8.93
2022-10-29T01:49:11.008Z,8.47
2022-10-29T01:51:39.448Z,8.67
2022-10-29T01:54:09.930Z,9.30
2022-10-29T01:56:36.897Z,9.73
2022-10-29T01:59:14.334Z,9.50
2022-10-29T02:02:13.761Z,9.27
2022-10-29T02:04:49.528Z,9.60
2022-10-29T02:07:38.913Z,8.03
2022-10-29T02:10:18.561Z,9.60
2022-10-29T02:12:47.654Z,9.03
2022-10-29T02:15:26.559Z,8.77
2022-10-29T02:17:53.797Z,8.77
2022-10-29T02:20:21.241Z,8.37
2022-10-29T02:22:47.974Z,8.90
2022-10-29T02:25:15.166Z,9.40
2022-10-29T02:27:41.930Z,8.50
2022-10-29T02:30:09.128Z,8.77
2022-10-29T02:32:35.964Z,8.57
2022-10-29T02:35:02.839Z,8.63
2022-10-29T02:37:29.585Z,7.83
2022-10-29T02:39:56.487Z,7.83
2022-10-29T02:42:23.413Z,8.20
2022-10-29T02:44:50.482Z,8.30
2022-10-29T02:47:17.380Z,9.60
2022-10-29T02:49:44.382Z,8.90
2022-10-29T02:52:11.144Z,8.47
2022-10-29T02:54:39.442Z,8.87
2022-10-29T02:57:06.518Z,9.40
2022-10-29T02:59:33.206Z,9.80
2022-10-29T03:02:00.492Z,9.27
2022-10-29T03:04:27.541Z,8.70
2022-10-29T03:06:54.282Z,10.07
2022-10-29T03:09:21.507Z,9.10
2022-10-29T03:11:48.340Z,9.43
2022-10-29T03:14:15.360Z,9.87
2022-10-29T03:16:42.158Z,10.07
2022-10-29T03:19:08.851Z,8.87
2022-10-29T03:21:35.653Z,9.50
2022-10-29T03:24:02.387Z,9.17
2022-10-29T03:26:29.055Z,8.60
2022-10-29T03:28:56.576Z,8.47
2022-10-29T03:31:23.331Z,9.70
2022-10-29T03:33:50.343Z,8.90
2022-10-29T03:36:17.125Z,9.07
2022-10-29T03:38:43.922Z,8.83
2022-10-29T03:41:10.984Z,8.53
2022-10-29T03:43:38.523Z,8.30
2022-10-29T03:46:06.102Z,7.93
2022-10-29T03:48:33.949Z,8.73
2022-10-29T03:51:02.926Z,8.43
2022-10-29T03:53:29.918Z,8.40
2022-10-29T03:55:57.547Z,8.97
2022-10-29T03:58:25.630Z,8.63
2022-10-29T04:00:57.369Z,8.70
2022-10-29T04:03:24.412Z,8.33
2022-10-29T04:05:51.423Z,9.03
2022-10-29T04:08:18.180Z,8.67
2022-10-29T04:10:49.498Z,9.37
2022-10-29T04:13:16.601Z,9.93
2022-10-29T04:15:43.448Z,9.97
2022-10-29T04:18:11.544Z,10.70
2022-10-29T04:21:58.691Z,10.87
2022-10-29T04:29:01.107Z,10.13
2022-10-29T04:31:27.935Z,9.70
2022-10-29T04:33:54.960Z,10.07
2022-10-29T04:36:21.680Z,10.23
2022-10-29T04:38:50.117Z,9.83
2022-10-29T04:41:16.894Z,9.53
2022-10-29T04:43:43.865Z,9.90
2022-10-29T04:46:11.620Z,9.20
2022-10-29T04:48:38.846Z,9.70
2022-10-29T04:51:05.789Z,8.67
2022-10-29T04:53:32.680Z,8.03
2022-10-29T04:56:05.642Z,9.90
2022-10-29T04:58:32.448Z,9.17
2022-10-29T05:01:04.938Z,8.90
2022-10-29T05:03:32.617Z,8.60
2022-10-29T05:06:02.256Z,8.87
2022-10-29T05:08:28.971Z,9.03
2022-10-29T05:10:55.743Z,8.90
2022-10-29T05:13:22.698Z,8.50
2022-10-29T05:15:53.521Z,9.73
2022-10-29T05:18:21.509Z,10.47
2022-10-29T05:20:48.329Z,9.87
2022-10-29T05:23:15.216Z,9.47
2022-10-29T05:25:42.193Z,8.60
2022-10-29T05:28:14.075Z,9.20
2022-10-29T05:30:41.900Z,10.33
2022-10-29T05:33:09.789Z,10.37
2022-10-29T05:35:37.188Z,9.73
2022-10-29T05:38:04.963Z,10.27
2022-10-29T05:40:31.995Z,9.53
2022-10-29T05:42:59.228Z,9.70
2022-10-29T05:45:26.248Z,11.03
2022-10-29T05:48:01.033Z,10.97
2022-10-29T05:50:29.281Z,9.47
2022-10-29T05:53:06.809Z,8.87
2022-10-29T05:55:35.338Z,9.93
2022-10-29T05:58:07.822Z,9.97
2022-10-29T06:00:38.069Z,10.63
2022-10-29T06:03:10.306Z,10.30
2022-10-29T06:05:37.113Z,9.80
2022-10-29T06:08:03.933Z,7.23
2022-10-29T06:10:30.597Z,9.37
2022-10-29T06:12:57.581Z,9.30
2022-10-29T06:15:24.561Z,8.97
2022-10-29T06:17:51.690Z,8.97
2022-10-29T06:20:21.034Z,8.10
2022-10-29T06:22:48.325Z,8.20
2022-10-29T06:25:15.238Z,8.83
2022-10-29T06:27:41.945Z,9.60
2022-10-29T06:30:09.203Z,9.60
2022-10-29T06:32:35.942Z,8.40
2022-10-29T06:35:02.777Z,8.83
2022-10-29T06:37:33.235Z,7.80
2022-10-29T06:40:00.033Z,8.20
2022-10-29T06:42:26.741Z,8.47
2022-10-29T06:44:53.671Z,8.03
2022-10-29T06:47:20.376Z,10.40
2022-10-29T06:49:47.055Z,8.30
2022-10-29T06:52:13.892Z,9.40
2022-10-29T06:54:40.598Z,9.00
2022-10-29T06:57:07.361Z,7.80
2022-10-29T06:59:34.123Z,8.10
2022-10-29T07:02:01.010Z,8.50
2022-10-29T07:04:27.987Z,8.10
2022-10-29T07:06:54.755Z,8.73
2022-10-29T07:09:21.503Z,9.13
2022-10-29T07:11:48.231Z,7.57
2022-10-29T07:14:14.961Z,7.93
2022-10-29T07:16:41.667Z,6.93
2022-10-29T07:19:08.586Z,7.50
2022-10-29T07:21:35.265Z,7.20
2022-10-29T07:24:02.035Z,9.27
2022-10-29T07:26:28.744Z,7.77
2022-10-29T07:28:57.565Z,7.57
2022-10-29T07:31:24.967Z,8.07
2022-10-29T07:33:51.814Z,8.60
2022-10-29T07:36:18.853Z,9.57
2022-10-29T07:38:46.268Z,7.93
2022-10-29T07:41:12.933Z,8.57
2022-10-29T07:43:39.693Z,7.83
2022-10-29T07:46:06.568Z,9.70
2022-10-29T07:48:33.726Z,9.00
2022-10-29T07:51:01.678Z,9.40
2022-10-29T07:53:31.227Z,8.23
2022-10-29T07:55:58.362Z,9.70
2022-10-29T07:58:26.080Z,8.93
2022-10-29T08:00:53.382Z,9.40
2022-10-29T08:03:20.112Z,10.17
2022-10-29T08:05:55.172Z,9.23
2022-10-29T08:08:23.796Z,10.00
2022-10-29T08:10:50.533Z,9.27
2022-10-29T08:13:17.273Z,8.07
2022-10-29T08:15:46.578Z,8.37
2022-10-29T08:18:18.113Z,9.10
2022-10-29T08:20:45.952Z,8.73
2022-10-29T08:23:14.124Z,10.17
2022-10-29T08:25:42.689Z,8.70
2022-10-29T08:28:14.945Z,10.10
2022-10-29T08:30:44.064Z,9.57
2022-10-29T08:33:11.277Z,10.30
2022-10-29T08:35:38.097Z,8.87
2022-10-29T08:38:04.898Z,9.00
2022-10-29T08:40:39.712Z,9.07
2022-10-29T08:43:24.558Z,7.67
2022-10-29T08:45:54.702Z,8.90
2022-10-29T08:48:33.365Z,8.80
2022-10-29T08:51:00.047Z,8.57
2022-10-29T08:53:58.758Z,7.93
2022-10-29T08:56:38.823Z,8.40
2022-10-29T08:59:17.737Z,7.10
2022-10-29T09:01:45.203Z,7.40
2022-10-29T09:04:24.610Z,7.70
2022-10-29T09:07:09.605Z,6.50
2022-10-29T09:09:58.233Z,6.60
2022-10-29T09:12:53.648Z,5.93
2022-10-29T09:15:45.960Z,6.23
2022-10-29T09:18:34.747Z,6.50
2022-10-29T09:21:17.605Z,6.60
2022-10-29T09:24:08.723Z,6.27
2022-10-29T09:26:58.922Z,8.10
2022-10-29T09:29:56.162Z,6.47
2022-10-29T09:32:44.346Z,5.87
2022-10-29T09:35:19.040Z,7.07
2022-10-29T09:37:53.685Z,7.03
2022-10-29T09:40:32.999Z,8.23
2022-10-29T09:43:05.764Z,7.60
2022-10-29T09:45:47.942Z,6.90
2022-10-29T09:48:23.940Z,6.07
2022-10-29T09:51:06.686Z,5.60
2022-10-29T09:53:33.522Z,5.83
2022-10-29T09:56:01.211Z,5.97
2022-10-29T09:58:29.159Z,7.97
2022-10-29T10:00:59.165Z,5.83
2022-10-29T10:03:45.557Z,5.77
2022-10-29T10:06:14.906Z,5.70
2022-10-29T10:09:01.742Z,7.03
2022-10-29T10:11:58.797Z,6.20
2022-10-29T10:14:27.404Z,6.10
2022-10-29T10:17:01.632Z,6.50
2022-10-29T10:19:31.051Z,5.27
2022-10-29T10:22:03.813Z,5.60
2022-10-29T10:24:35.385Z,8.33
2022-10-29T10:27:31.357Z,6.23
2022-10-29T10:30:03.859Z,8.47
2022-10-29T10:32:31.132Z,7.10
2022-10-29T10:34:58.139Z,5.63
2022-10-29T10:37:24.956Z,5.43
2022-10-29T10:39:58.016Z,5.33
2022-10-29T10:42:29.986Z,5.50
2022-10-29T10:45:03.284Z,5.67
2022-10-29T10:47:34.346Z,5.63
2022-10-29T10:50:22.874Z,5.30
2022-10-29T10:52:51.621Z,5.53
2022-10-29T10:55:24.085Z,6.27
2022-10-29T10:58:15.355Z,5.50
2022-10-29T11:00:49.152Z,5.50
2022-10-29T11:03:21.434Z,5.53
2022-10-29T11:06:07.194Z,6.50
2022-10-29T11:08:37.713Z,5.27
2022-10-29T11:11:19.506Z,5.53
2022-10-29T11:13:47.885Z,5.43
2022-10-29T11:16:48.992Z,5.97
2022-10-29T11:19:18.454Z,5.50
2022-10-29T11:22:03.865Z,5.30
2022-10-29T11:24:39.184Z,5.23
2022-10-29T11:27:33.023Z,5.67
2022-10-29T11:30:10.907Z,5.40
2022-10-29T11:33:02.651Z,5.97
2022-10-29T11:35:46.157Z,5.80
2022-10-29T11:38:31.667Z,7.00
2022-10-29T11:41:24.838Z,6.70
2022-10-29T11:43:51.966Z,6.17
2022-10-29T11:46:40.399Z,5.63
2022-10-29T11:49:32.186Z,6.20
2022-10-29T11:52:46.423Z,6.27
2022-10-29T11:55:28.545Z,6.23
2022-10-29T11:58:10.345Z,5.73
2022-10-29T12:00:49.056Z,5.87
2022-10-29T12:03:16.206Z,5.70
2022-10-29T12:06:00.849Z,5.03
2022-10-29T12:08:27.475Z,5.87
2022-10-29T12:11:03.590Z,8.77
2022-10-29T12:14:08.670Z,5.20
2022-10-29T12:17:15.856Z,7.33
2022-10-29T12:20:03.962Z,7.30
2022-10-29T12:22:42.692Z,13.93
2022-10-29T12:25:37.817Z,7.63
2022-10-29T12:28:21.870Z,9.07
2022-10-29T12:31:03.937Z,8.07
2022-10-29T12:33:46.553Z,7.00
2022-10-29T12:36:34.102Z,6.67
2022-10-29T12:39:02.375Z,6.80
2022-10-29T12:41:38.866Z,6.77
2022-10-29T12:44:26.912Z,7.23
2022-10-29T12:47:18.065Z,6.50
2022-10-29T12:50:03.878Z,7.10
2022-10-29T12:53:08.884Z,6.23
2022-10-29T12:55:37.088Z,6.63
2022-10-29T12:58:41.211Z,7.13
2022-10-29T13:01:57.261Z,5.93
2022-10-29T13:04:34.129Z,5.87
2022-10-29T13:07:04.338Z,6.17
2022-10-29T13:09:35.751Z,5.57
2022-10-29T13:12:25.977Z,5.47
2022-10-29T13:15:01.095Z,7.40
2022-10-29T13:17:34.341Z,6.07
2022-10-29T13:20:04.585Z,7.17
2022-10-29T13:22:33.467Z,6.13
2022-10-29T13:25:30.137Z,6.27
2022-10-29T13:27:56.882Z,5.80
2022-10-29T13:30:26.215Z,4.53
2022-10-29T13:32:54.625Z,5.60
2022-10-29T13:35:21.646Z,6.23
2022-10-29T13:38:11.635Z,5.47
2022-10-29T13:40:56.323Z,6.70
2022-10-29T13:43:23.636Z,5.90
2022-10-29T13:46:27.468Z,5.53
2022-10-29T13:48:56.297Z,6.83
2022-10-29T13:51:33.442Z,6.63
2022-10-29T13:54:07.868Z,6.77
2022-10-29T13:57:06.725Z,5.87
2022-10-29T13:59:41.548Z,6.20
2022-10-29T14:02:23.951Z,5.70
2022-10-29T14:04:56.414Z,6.90
2022-10-29T14:07:38.003Z,6.37
2022-10-29T14:10:14.844Z,5.93
2022-10-29T14:12:42.500Z,6.20
2022-10-29T14:15:13.130Z,6.83
2022-10-29T14:17:40.259Z,6.50
2022-10-29T14:20:27.625Z,6.43
2022-10-29T14:22:54.981Z,7.50
2022-10-29T14:25:24.948Z,6.93
2022-10-29T14:28:10.379Z,7.60
2022-10-29T14:30:37.120Z,7.17
2022-10-29T14:33:27.452Z,6.53
2022-10-29T14:36:17.844Z,6.60
2022-10-29T14:38:49.667Z,6.77
2022-10-29T14:41:17.329Z,5.57
2022-10-29T14:43:50.028Z,5.93
2022-10-29T14:46:16.823Z,6.47
2022-10-29T14:49:01.095Z,5.40
2022-10-29T14:51:28.444Z,5.33
2022-10-29T14:54:01.343Z,6.80
2022-10-29T14:56:37.054Z,5.97
2022-10-29T14:59:13.939Z,5.20
2022-10-29T15:01:51.631Z,6.60
2022-10-29T15:04:21.679Z,5.30
2022-10-29T15:06:48.678Z,7.00
2022-10-29T15:09:21.832Z,5.77
2022-10-29T15:12:18.517Z,6.53
2022-10-29T15:14:53.399Z,6.40
2022-10-29T15:17:22.549Z,4.90
2022-10-29T15:20:12.575Z,4.97
2022-10-29T15:22:42.622Z,5.40
2022-10-29T15:25:20.622Z,5.70
2022-10-29T15:27:48.953Z,5.23
2022-10-29T15:30:20.600Z,4.67
2022-10-29T15:32:49.018Z,5.20
2022-10-29T15:35:21.256Z,5.20
2022-10-29T15:37:48.193Z,5.90
2022-10-29T15:40:19.408Z,5.97
2022-10-29T15:42:46.496Z,4.43
2022-10-29T15:45:15.019Z,4.77
2022-10-29T15:47:46.106Z,5.37
2022-10-29T15:50:14.995Z,5.70
2022-10-29T15:52:47.251Z,5.13
2022-10-29T15:55:26.772Z,5.30
2022-10-29T15:57:56.230Z,5.00
2022-10-29T16:00:23.934Z,6.07
2022-10-29T16:02:51.628Z,5.37
2022-10-29T16:05:19.065Z,5.23
2022-10-29T16:07:47.782Z,5.57
2022-10-29T16:10:20.614Z,5.03
2022-10-29T16:12:49.578Z,4.90
2022-10-29T16:15:19.282Z,5.20
2022-10-29T16:17:47.176Z,5.27
2022-10-29T16:20:16.771Z,6.40
2022-10-29T16:22:43.819Z,6.10
2022-10-29T16:25:24.056Z,5.77
2022-10-29T16:27:51.255Z,5.17
2022-10-29T16:30:19.564Z,6.40
2022-10-29T16:32:49.743Z,5.80
2022-10-29T16:35:27.292Z,5.57
2022-10-29T16:37:55.829Z,5.60
2022-10-29T16:40:27.813Z,6.67
2022-10-29T16:42:55.057Z,5.30
2022-10-29T16:45:25.336Z,5.90
2022-10-29T16:47:52.655Z,6.00
2022-10-29T16:50:25.301Z,5.63
2022-10-29T16:53:06.694Z,5.77
2022-10-29T16:55:36.054Z,5.87
2022-10-29T16:58:02.821Z,5.17
2022-10-29T17:00:33.275Z,6.10
2022-10-29T17:03:04.753Z,6.30
2022-10-29T17:05:37.048Z,5.93
2022-10-29T17:08:04.135Z,4.87
2022-10-29T17:10:33.716Z,4.57
2022-10-29T17:13:00.797Z,5.30
2022-10-29T17:15:28.128Z,5.80
2022-10-29T17:17:54.841Z,5.90
2022-10-29T17:20:21.900Z,5.03
2022-10-29T17:22:48.700Z,5.10
2022-10-29T17:25:15.424Z,5.30
2022-10-29T17:27:42.688Z,5.23
2022-10-29T17:30:10.883Z,5.37
2022-10-29T17:32:37.783Z,5.90
2022-10-29T17:35:04.757Z,5.30
2022-10-29T17:37:31.599Z,4.80
2022-10-29T17:40:02.962Z,5.50
2022-10-29T17:42:33.661Z,5.80
2022-10-29T17:45:00.373Z,6.53
2022-10-29T17:47:27.122Z,5.50
2022-10-29T17:49:53.778Z,5.67
2022-10-29T17:52:20.638Z,6.70
2022-10-29T17:54:47.388Z,5.10
2022-10-29T17:57:14.081Z,5.67
2022-10-29T17:59:40.794Z,5.43
2022-10-29T18:02:10.880Z,5.07
2022-10-29T18:04:37.834Z,4.90
2022-10-29T18:07:04.490Z,5.20
2022-10-29T18:09:31.531Z,6.00
2022-10-29T18:11:58.202Z,4.80
2022-10-29T18:14:24.973Z,5.50
2022-10-29T18:16:51.683Z,5.70
2022-10-29T18:19:18.400Z,4.97
2022-10-29T18:21:45.486Z,5.40
2022-10-29T18:24:12.202Z,5.73
2022-10-29T18:26:38.966Z,5.87
2022-10-29T18:29:08.856Z,5.73
2022-10-29T18:31:37.485Z,4.87
2022-10-29T18:34:07.065Z,6.40
2022-10-29T18:36:35.591Z,5.50
2022-10-29T18:39:04.127Z,5.27
2022-10-29T18:41:31.133Z,5.13
2022-10-29T18:43:58.775Z,5.13
2022-10-29T18:46:26.007Z,5.67
2022-10-29T18:48:53.113Z,4.80
2022-10-29T18:51:21.205Z,5.73
2022-10-29T18:53:47.912Z,6.50
2022-10-29T18:56:17.933Z,5.67
2022-10-29T18:58:45.326Z,6.63
2022-10-29T19:01:16.216Z,5.30
2022-10-29T19:03:43.358Z,4.93
2022-10-29T19:06:13.313Z,5.60
2022-10-29T19:08:42.885Z,5.80
2022-10-29T19:11:15.416Z,5.80
2022-10-29T19:13:42.471Z,5.40
2022-10-29T19:16:11.970Z,5.83
2022-10-29T19:18:39.950Z,6.57
2022-10-29T19:21:15.134Z,5.40
2022-10-29T19:23:42.239Z,5.90
2022-10-29T19:26:08.979Z,6.57
2022-10-29T19:28:36.401Z,6.60
2022-10-29T19:31:11.863Z,6.73
2022-10-29T19:33:39.077Z,6.50
2022-10-29T19:36:07.227Z,5.40
2022-10-29T19:38:34.512Z,6.70
2022-10-29T19:41:01.780Z,6.00
2022-10-29T19:43:29.450Z,7.10
2022-10-29T19:45:56.443Z,7.97
2022-10-29T19:48:23.554Z,6.70
2022-10-29T19:50:55.937Z,6.47
2022-10-29T19:53:23.786Z,6.93
2022-10-29T19:55:50.992Z,5.97
2022-10-29T19:58:18.769Z,6.20
2022-10-29T20:00:45.742Z,6.87
2022-10-29T20:03:13.552Z,6.67
2022-10-29T20:05:41.534Z,5.47
2022-10-29T20:08:11.461Z,5.90
2022-10-29T20:10:41.584Z,6.13
2022-10-29T20:13:08.408Z,5.67
2022-10-29T20:15:35.116Z,5.73
2022-10-29T20:18:02.019Z,5.67
2022-10-29T20:20:28.734Z,5.50
2022-10-29T20:22:56.889Z,5.83
2022-10-29T20:25:24.390Z,5.17
2022-10-29T20:27:51.165Z,5.10
2022-10-29T20:30:17.963Z,5.27
2022-10-29T20:32:44.666Z,5.57
2022-10-29T20:35:11.416Z,5.40
2022-10-29T20:37:38.167Z,5.43
2022-10-29T20:40:05.734Z,5.07
2022-10-29T20:42:32.380Z,5.73
2022-10-29T20:44:59.088Z,5.33
2022-10-29T20:47:25.778Z,5.33
2022-10-29T20:49:52.478Z,6.17
2022-10-29T20:52:19.202Z,5.50
2022-10-29T20:54:45.972Z,5.20
2022-10-29T20:57:12.674Z,5.47
2022-10-29T20:59:39.442Z,6.50
2022-10-29T21:02:06.585Z,6.23
2022-10-29T21:04:33.531Z,6.20
2022-10-29T21:07:00.180Z,6.33
2022-10-29T21:09:26.936Z,6.37
2022-10-29T21:11:53.698Z,7.80
2022-10-29T21:14:20.408Z,6.40
2022-10-29T21:16:47.241Z,7.33
2022-10-29T21:19:14.015Z,7.23
2022-10-29T21:21:40.768Z,7.60
2022-10-29T21:24:07.729Z,8.03
2022-10-29T21:26:34.363Z,8.57
2022-10-29T21:29:01.039Z,8.37
2022-10-29T21:31:27.877Z,7.17
2022-10-29T21:33:55.440Z,7.17
2022-10-29T21:36:22.983Z,7.70
2022-10-29T21:38:49.622Z,7.93
2022-10-29T21:41:16.951Z,7.73
2022-10-29T21:43:43.805Z,7.80
2022-10-29T21:46:10.550Z,8.00
2022-10-29T21:48:37.278Z,7.30
2022-10-29T21:51:10.373Z,8.00
2022-10-29T21:53:37.201Z,8.40
2022-10-29T21:56:06.744Z,7.43
2022-10-29T21:58:33.772Z,7.83
2022-10-29T22:01:12.895Z,7.43
2022-10-29T22:03:41.368Z,7.40
2022-10-29T22:06:12.198Z,7.60
2022-10-29T22:08:39.055Z,6.90
2022-10-29T22:11:05.968Z,6.40
2022-10-29T22:13:33.889Z,6.70
2022-10-29T22:16:01.383Z,6.10
2022-10-29T22:18:28.514Z,6.63
2022-10-29T22:21:08.808Z,6.37
2022-10-29T22:23:35.953Z,5.67
2022-10-29T22:26:02.605Z,5.90
2022-10-29T22:28:29.301Z,6.30
2022-10-29T22:31:00.723Z,5.60
2022-10-29T22:33:28.439Z,5.57
2022-10-29T22:35:55.647Z,6.00
2022-10-29T22:38:22.418Z,5.83
2022-10-29T22:40:49.151Z,6.47
2022-10-29T22:43:15.973Z,6.47
2022-10-29T22:45:45.136Z,5.43
2022-10-29T22:48:11.983Z,5.93
2022-10-29T22:50:38.701Z,5.13
2022-10-29T22:53:05.429Z,5.13
2022-10-29T22:55:32.502Z,5.37
2022-10-29T22:57:59.158Z,5.43
2022-10-29T23:00:25.818Z,5.73
2022-10-29T23:02:52.490Z,5.67
2022-10-29T23:05:19.131Z,5.60
2022-10-29T23:07:45.793Z,5.60
2022-10-29T23:10:12.478Z,6.17
2022-10-29T23:12:39.244Z,5.60
2022-10-29T23:15:08.352Z,5.47
2022-10-29T23:17:35.338Z,5.97
2022-10-29T23:20:02.073Z,5.80
2022-10-29T23:22:28.935Z,5.60
2022-10-29T23:24:55.567Z,5.53
2022-10-29T23:27:22.288Z,6.23
2022-10-29T23:29:49.000Z,5.57
2022-10-29T23:32:15.775Z,6.93
2022-10-29T23:34:42.409Z,6.10
2022-10-29T23:37:10.159Z,6.60
2022-10-29T23:39:37.246Z,6.50
2022-10-29T23:42:04.187Z,6.13
2022-10-29T23:44:30.865Z,5.93
2022-10-29T23:46:57.543Z,5.97
2022-10-29T23:49:24.336Z,6.60
2022-10-29T23:51:51.243Z,7.57
2022-10-29T23:54:17.919Z,6.70
2022-10-29T23:56:44.658Z,5.43
2022-10-29T23:59:11.339Z,5.07
